createdAt,value
2019-02-05T00:01:02.942Z,101925.15
2019-02-05T00:03:36.301Z,101926.11
2019-02-05T00:06:11.162Z,101929.81
2019-02-05T00:08:44.631Z,101927.09
2019-02-05T00:11:17.950Z,101932.67
2019-02-05T00:13:51.217Z,101928.79
2019-02-05T00:16:24.502Z,101932.76
2019-02-05T00:18:57.795Z,101928.34
2019-02-05T00:21:31.091Z,101928.50
2019-02-05T00:24:04.986Z,101930.16
2019-02-05T00:26:38.839Z,101936.67
2019-02-05T00:29:12.109Z,101930.61
2019-02-05T00:31:45.410Z,101930.29
2019-02-05T00:34:18.688Z,101937.22
2019-02-05T00:36:52.001Z,101937.98
2019-02-05T00:39:25.305Z,101926.97
2019-02-05T00:41:58.974Z,101923.35
2019-02-05T00:44:32.241Z,101909.69
2019-02-05T00:47:06.199Z,101912.63
2019-02-05T00:49:39.507Z,101914.95
2019-02-05T00:52:12.786Z,101919.92
2019-02-05T00:54:46.093Z,101909.91
2019-02-05T00:57:19.409Z,101913.53
2019-02-05T00:59:52.705Z,101912.73
2019-02-05T01:02:25.989Z,101922.72
2019-02-05T01:04:59.543Z,101921.87
2019-02-05T01:07:32.917Z,101918.23
2019-02-05T01:10:08.335Z,101926.09
2019-02-05T01:12:41.731Z,101924.89
2019-02-05T01:15:20.673Z,101915.44
2019-02-05T01:17:54.104Z,101920.21
2019-02-05T01:20:27.443Z,101921.28
2019-02-05T01:23:00.731Z,101924.41
2019-02-05T01:25:34.365Z,101923.91
2019-02-05T01:28:07.775Z,101916.98
2019-02-05T01:30:41.043Z,101921.02
2019-02-05T01:33:14.352Z,101911.75
2019-02-05T01:35:47.612Z,101911.16
2019-02-05T01:38:20.920Z,101906.39
2019-02-05T01:40:54.264Z,101902.15
2019-02-05T01:43:27.565Z,101899.13
2019-02-05T01:46:00.851Z,101895.17
2019-02-05T01:48:34.339Z,101894.34
2019-02-05T01:51:07.610Z,101887.13
2019-02-05T01:53:41.985Z,101882.50
2019-02-05T01:56:15.263Z,101888.47
2019-02-05T01:58:48.565Z,101885.91
2019-02-05T02:01:21.859Z,101897.38
2019-02-05T02:03:55.173Z,101903.41
2019-02-05T02:06:28.603Z,101906.32
2019-02-05T02:09:01.852Z,101892.59
2019-02-05T02:11:35.481Z,101899.11
2019-02-05T02:14:08.757Z,101895.80
2019-02-05T02:16:42.068Z,101898.32
2019-02-05T02:19:15.358Z,101900.63
2019-02-05T02:21:50.225Z,101911.28
2019-02-05T02:24:23.511Z,101907.63
2019-02-05T02:26:56.872Z,101889.55
2019-02-05T02:29:30.171Z,101893.66
2019-02-05T02:32:03.548Z,101891.07
2019-02-05T02:34:36.821Z,101888.42
2019-02-05T02:37:10.124Z,101896.25
2019-02-05T02:39:44.603Z,101899.20
2019-02-05T02:42:17.901Z,101902.00
2019-02-05T02:44:51.826Z,101915.23
2019-02-05T02:47:27.756Z,101902.95
2019-02-05T02:50:00.227Z,101893.46
2019-02-05T02:52:33.530Z,101882.25
2019-02-05T02:55:07.725Z,101887.12
2019-02-05T02:57:41.981Z,101890.06
2019-02-05T03:00:18.442Z,101889.50
2019-02-05T03:02:52.024Z,101889.10
2019-02-05T03:05:25.473Z,101890.87
2019-02-05T03:07:58.763Z,101890.09
2019-02-05T03:10:32.147Z,101889.72
2019-02-05T03:13:05.471Z,101892.46
2019-02-05T03:15:38.761Z,101893.22
2019-02-05T03:18:12.062Z,101900.97
2019-02-05T03:20:45.360Z,101901.39
2019-02-05T03:23:18.720Z,101906.43
2019-02-05T03:25:52.116Z,101903.83
2019-02-05T03:28:25.413Z,101888.63
2019-02-05T03:30:58.735Z,101890.52
2019-02-05T03:33:32.048Z,101899.05
2019-02-05T03:36:05.602Z,101889.59
2019-02-05T03:38:38.960Z,101890.05
2019-02-05T03:41:13.807Z,101889.88
2019-02-05T03:43:47.176Z,101884.93
2019-02-05T03:46:21.056Z,101888.01
2019-02-05T03:48:55.233Z,101880.56
2019-02-05T03:51:31.680Z,101883.92
2019-02-05T03:54:29.005Z,101889.14
2019-02-05T03:57:11.333Z,101900.30
2019-02-05T03:59:56.710Z,101898.52
2019-02-05T04:02:42.217Z,101910.81
2019-02-05T04:05:34.884Z,101915.59
2019-02-05T04:08:27.693Z,101914.69
2019-02-05T04:11:20.581Z,101914.45
2019-02-05T04:14:00.040Z,101915.69
2019-02-05T04:16:51.632Z,101919.48
2019-02-05T04:19:33.864Z,101917.81
2019-02-05T04:22:27.160Z,101909.27
2019-02-05T04:25:35.821Z,101913.97
2019-02-05T04:28:34.876Z,101908.53
2019-02-05T04:31:17.209Z,101914.20
2019-02-05T04:33:59.478Z,101931.34
2019-02-05T04:36:44.488Z,101922.88
2019-02-05T04:39:43.835Z,101920.00
2019-02-05T04:42:20.311Z,101922.64
2019-02-05T04:45:08.798Z,101918.71
2019-02-05T04:48:01.731Z,101923.08
2019-02-05T04:50:38.585Z,101921.76
2019-02-05T04:53:30.148Z,101932.25
2019-02-05T04:56:18.430Z,101933.96
2019-02-05T04:58:57.749Z,101922.82
2019-02-05T05:01:34.221Z,101927.34
2019-02-05T05:04:22.374Z,101935.91
2019-02-05T05:07:10.675Z,101930.09
2019-02-05T05:09:55.426Z,101929.50
2019-02-05T05:12:29.071Z,101930.09
2019-02-05T05:15:02.384Z,101932.21
2019-02-05T05:17:35.754Z,101927.30
2019-02-05T05:20:10.970Z,101923.55
2019-02-05T05:22:45.038Z,101931.75
2019-02-05T05:25:20.104Z,101928.03
2019-02-05T05:27:55.025Z,101933.04
2019-02-05T05:30:28.434Z,101940.21
2019-02-05T05:33:02.985Z,101940.27
2019-02-05T05:35:43.433Z,101944.48
2019-02-05T05:38:11.532Z,101944.94
2019-02-05T05:40:44.885Z,101939.98
2019-02-05T05:43:18.192Z,101946.44
2019-02-05T05:45:51.475Z,101947.45
2019-02-05T05:48:24.812Z,101942.91
2019-02-05T05:50:58.174Z,101946.11
2019-02-05T05:53:31.479Z,101951.44
2019-02-05T05:56:04.853Z,101947.11
2019-02-05T05:58:38.241Z,101956.19
2019-02-05T06:01:11.535Z,101950.07
2019-02-05T06:03:44.835Z,101949.11
2019-02-05T06:06:18.101Z,101968.50
2019-02-05T06:08:51.446Z,101970.14
2019-02-05T06:11:25.170Z,101964.66
2019-02-05T06:13:58.463Z,101968.20
2019-02-05T06:16:31.775Z,101964.16
2019-02-05T06:19:05.164Z,101971.47
2019-02-05T06:21:38.477Z,101967.67
2019-02-05T06:24:11.865Z,101960.42
2019-02-05T06:26:45.224Z,101965.25
2019-02-05T06:29:18.556Z,101968.50
2019-02-05T06:31:51.844Z,101979.44
2019-02-05T06:34:25.244Z,101974.45
2019-02-05T06:36:58.542Z,101976.77
2019-02-05T06:39:31.836Z,101973.59
2019-02-05T06:42:05.191Z,101977.29
2019-02-05T06:44:38.477Z,101984.04
2019-02-05T06:47:11.952Z,101979.88
2019-02-05T06:49:45.340Z,101984.02
2019-02-05T06:52:18.638Z,101977.23
2019-02-05T06:54:51.932Z,101982.75
2019-02-05T06:57:25.226Z,101981.58
2019-02-05T06:59:58.554Z,101992.63
2019-02-05T07:02:31.855Z,102003.42
2019-02-05T07:05:08.570Z,102001.12
2019-02-05T07:07:41.995Z,101999.72
2019-02-05T07:10:18.704Z,102007.42
2019-02-05T07:12:52.049Z,102001.03
2019-02-05T07:15:25.385Z,102005.75
2019-02-05T07:17:58.655Z,102000.53
2019-02-05T07:20:31.951Z,102005.52
2019-02-05T07:23:05.305Z,102001.45
2019-02-05T07:25:38.609Z,101997.25
2019-02-05T07:28:11.895Z,102000.29
2019-02-05T07:30:45.209Z,102002.69
2019-02-05T07:33:18.495Z,102001.73
2019-02-05T07:35:51.786Z,102011.83
2019-02-05T07:38:25.079Z,102018.50
2019-02-05T07:40:58.433Z,102009.23
2019-02-05T07:43:31.702Z,102016.80
2019-02-05T07:46:05.393Z,102016.12
2019-02-05T07:48:39.056Z,102025.25
2019-02-05T07:51:12.925Z,102020.47
2019-02-05T07:53:47.030Z,102025.87
2019-02-05T07:56:20.331Z,102028.02
2019-02-05T07:58:53.608Z,102041.11
2019-02-05T08:01:26.917Z,102043.16
2019-02-05T08:04:00.254Z,102051.64
2019-02-05T08:06:33.557Z,102042.84
2019-02-05T08:09:08.859Z,102051.30
2019-02-05T08:11:42.525Z,102055.03
2019-02-05T08:14:15.962Z,102056.10
2019-02-05T08:16:49.253Z,102062.52
2019-02-05T08:19:22.526Z,102061.19
2019-02-05T08:21:55.827Z,102063.83
2019-02-05T08:24:29.113Z,102059.89
2019-02-05T08:27:02.411Z,102061.80
2019-02-05T08:29:35.714Z,102066.11
2019-02-05T08:32:09.024Z,102066.22
2019-02-05T08:34:42.301Z,102067.66
2019-02-05T08:37:15.604Z,102067.26
2019-02-05T08:39:48.881Z,102073.75
2019-02-05T08:42:22.169Z,102079.28
2019-02-05T08:44:56.631Z,102071.44
2019-02-05T08:47:29.940Z,102080.72
2019-02-05T08:50:05.895Z,102081.91
2019-02-05T08:52:39.188Z,102067.56
2019-02-05T08:55:15.121Z,102069.95
2019-02-05T08:57:50.561Z,102076.61
2019-02-05T09:00:25.900Z,102066.58
2019-02-05T09:02:59.262Z,102068.58
2019-02-05T09:05:32.685Z,102071.55
2019-02-05T09:08:06.113Z,102071.00
2019-02-05T09:10:41.365Z,102068.09
2019-02-05T09:13:14.934Z,102067.29
2019-02-05T09:15:48.213Z,102069.31
2019-02-05T09:18:21.502Z,102062.52
2019-02-05T09:20:54.763Z,102065.59
2019-02-05T09:23:28.130Z,102059.17
2019-02-05T09:26:01.782Z,102064.95
2019-02-05T09:28:35.090Z,102059.77
2019-02-05T09:31:08.485Z,102062.25
2019-02-05T09:33:41.845Z,102060.53
2019-02-05T09:36:15.149Z,102060.17
2019-02-05T09:38:48.410Z,102060.08
2019-02-05T09:41:21.709Z,102068.77
2019-02-05T09:43:55.043Z,102066.38
2019-02-05T09:46:28.349Z,102069.42
2019-02-05T09:49:01.625Z,102076.72
2019-02-05T09:51:34.913Z,102086.74
2019-02-05T09:54:08.180Z,102085.09
2019-02-05T09:56:41.477Z,102091.34
2019-02-05T09:59:14.760Z,102087.39
2019-02-05T10:01:48.328Z,102094.02
2019-02-05T10:04:21.637Z,102097.11
2019-02-05T10:06:55.403Z,102101.86
2019-02-05T10:09:28.767Z,102102.11
2019-02-05T10:12:02.060Z,102096.44
2019-02-05T10:14:35.893Z,102098.36
2019-02-05T10:17:09.194Z,102102.78
2019-02-05T10:19:42.479Z,102101.68
2019-02-05T10:22:15.886Z,102106.12
2019-02-05T10:24:49.915Z,102109.27
2019-02-05T10:27:23.462Z,102115.31
2019-02-05T10:29:59.528Z,102120.77
2019-02-05T10:32:31.790Z,102125.21
2019-02-05T10:35:07.522Z,102124.81
2019-02-05T10:37:41.082Z,102126.86
2019-02-05T10:40:14.601Z,102133.71
2019-02-05T10:42:47.993Z,102131.54
2019-02-05T10:45:23.371Z,102120.89
2019-02-05T10:47:57.550Z,102121.84
2019-02-05T10:50:31.115Z,102122.13
2019-02-05T10:53:04.685Z,102118.31
2019-02-05T10:55:37.966Z,102115.27
2019-02-05T10:58:12.227Z,102116.16
2019-02-05T11:00:45.508Z,102111.13
2019-02-05T11:03:18.873Z,102107.01
2019-02-05T11:05:52.161Z,102104.28
2019-02-05T11:08:25.628Z,102101.66
2019-02-05T11:10:58.930Z,102101.75
2019-02-05T11:13:32.247Z,102097.91
2019-02-05T11:16:05.510Z,102099.39
2019-02-05T11:18:38.823Z,102101.09
2019-02-05T11:21:12.203Z,102086.64
2019-02-05T11:23:45.487Z,102081.22
2019-02-05T11:26:19.220Z,102087.53
2019-02-05T11:28:52.524Z,102086.64
2019-02-05T11:31:25.830Z,102095.34
2019-02-05T11:33:59.130Z,102092.17
2019-02-05T11:36:32.454Z,102090.51
2019-02-05T11:39:09.196Z,102084.25
2019-02-05T11:41:42.474Z,102084.42
2019-02-05T11:44:15.768Z,102080.98
2019-02-05T11:46:49.119Z,102085.09
2019-02-05T11:49:22.468Z,102075.83
2019-02-05T11:51:55.831Z,102078.85
2019-02-05T11:54:29.142Z,102068.45
2019-02-05T11:57:02.421Z,102077.34
2019-02-05T11:59:35.789Z,102070.50
2019-02-05T12:02:09.634Z,102067.57
2019-02-05T12:04:42.960Z,102064.30
2019-02-05T12:07:16.250Z,102062.69
2019-02-05T12:09:49.662Z,102052.83
2019-02-05T12:12:22.942Z,102051.97
2019-02-05T12:14:56.616Z,102048.86
2019-02-05T12:17:31.026Z,102042.56
2019-02-05T12:20:07.959Z,102045.72
2019-02-05T12:22:41.298Z,102036.95
2019-02-05T12:25:17.511Z,102032.20
2019-02-05T12:27:50.891Z,102032.30
2019-02-05T12:30:26.804Z,102030.24
2019-02-05T12:33:01.757Z,102031.08
2019-02-05T12:35:35.490Z,102028.55
2019-02-05T12:38:09.698Z,102018.61
2019-02-05T12:40:43.069Z,102018.41
2019-02-05T12:43:16.429Z,102011.36
2019-02-05T12:45:49.746Z,102009.13
2019-02-05T12:48:23.085Z,102010.27
2019-02-05T12:50:56.443Z,102008.58
2019-02-05T12:53:29.816Z,102009.89
2019-02-05T12:56:03.088Z,102012.30
2019-02-05T12:58:36.395Z,102007.79
2019-02-05T13:01:09.739Z,102015.55
2019-02-05T13:03:43.041Z,102015.42
2019-02-05T13:06:16.340Z,102014.97
2019-02-05T13:08:49.644Z,102018.03
2019-02-05T13:11:22.933Z,102016.66
2019-02-05T13:13:56.232Z,102016.86
2019-02-05T13:16:29.550Z,102013.95
2019-02-05T13:19:03.000Z,102015.42
2019-02-05T13:21:36.303Z,102019.64
2019-02-05T13:24:09.998Z,102012.25
2019-02-05T13:26:43.300Z,102017.33
2019-02-05T13:29:16.616Z,102012.73
2019-02-05T13:31:49.929Z,102012.15
2019-02-05T13:34:23.245Z,102006.58
2019-02-05T13:36:56.530Z,102008.03
2019-02-05T13:39:29.828Z,102010.91
2019-02-05T13:42:03.133Z,102008.74
2019-02-05T13:44:36.455Z,102008.70
2019-02-05T13:47:09.978Z,102003.50
2019-02-05T13:49:43.300Z,102011.33
2019-02-05T13:52:16.599Z,102008.34
2019-02-05T13:54:49.917Z,102011.14
2019-02-05T13:57:23.242Z,102008.51
2019-02-05T13:59:56.543Z,102011.62
2019-02-05T14:02:29.871Z,102006.19
2019-02-05T14:05:03.746Z,102005.69
2019-02-05T14:07:37.036Z,102000.23
2019-02-05T14:10:28.723Z,102004.93
2019-02-05T14:13:02.015Z,102000.80
2019-02-05T14:15:43.569Z,101999.87
2019-02-05T14:18:16.860Z,101996.54
2019-02-05T14:20:50.178Z,102000.78
2019-02-05T14:23:23.474Z,102004.48
2019-02-05T14:25:59.638Z,101995.36
2019-02-05T14:28:31.970Z,101997.77
2019-02-05T14:31:05.292Z,102002.10
2019-02-05T14:33:38.576Z,101995.77
2019-02-05T14:36:11.915Z,101995.97
2019-02-05T14:38:45.266Z,101998.09
2019-02-05T14:41:18.597Z,101994.43
2019-02-05T14:43:51.941Z,101995.17
2019-02-05T14:46:25.272Z,101991.62
2019-02-05T14:48:58.595Z,101990.85
2019-02-05T14:51:32.194Z,101989.53
2019-02-05T14:54:05.603Z,101994.31
2019-02-05T14:56:38.882Z,101990.51
2019-02-05T14:59:12.268Z,101995.16
2019-02-05T15:01:45.582Z,101989.86
2019-02-05T15:04:18.909Z,101987.91
2019-02-05T15:06:53.810Z,101990.51
2019-02-05T15:09:27.147Z,101990.92
2019-02-05T15:12:00.420Z,101989.60
2019-02-05T15:14:33.723Z,101989.45
2019-02-05T15:17:07.038Z,101992.06
2019-02-05T15:19:40.358Z,101990.14
2019-02-05T15:22:13.623Z,101986.22
2019-02-05T15:24:47.438Z,101985.87
2019-02-05T15:27:20.747Z,101978.86
2019-02-05T15:29:54.104Z,101983.32
2019-02-05T15:32:47.007Z,101991.86
2019-02-05T15:35:20.325Z,101997.34
2019-02-05T15:37:53.632Z,101998.83
2019-02-05T15:40:27.015Z,101999.22
2019-02-05T15:43:00.288Z,102003.11
2019-02-05T15:45:33.607Z,101998.23
2019-02-05T15:48:06.972Z,102004.27
2019-02-05T15:50:40.295Z,101999.89
2019-02-05T15:53:15.228Z,101997.34
2019-02-05T15:55:48.889Z,101993.90
2019-02-05T15:58:22.219Z,101989.45
2019-02-05T16:00:55.631Z,101991.48
2019-02-05T16:03:28.904Z,102001.81
2019-02-05T16:06:02.223Z,101999.59
2019-02-05T16:08:35.619Z,102000.88
2019-02-05T16:11:09.010Z,102003.34
2019-02-05T16:13:42.353Z,102005.37
2019-02-05T16:16:15.895Z,102005.27
2019-02-05T16:18:49.483Z,102013.84
2019-02-05T16:21:22.803Z,102015.06
2019-02-05T16:23:58.116Z,102017.23
2019-02-05T16:26:31.208Z,102016.59
2019-02-05T16:29:04.610Z,102017.40
2019-02-05T16:31:37.983Z,102017.73
2019-02-05T16:34:11.274Z,102025.38
2019-02-05T16:36:44.613Z,102020.14
2019-02-05T16:39:17.928Z,102028.70
2019-02-05T16:41:51.626Z,102029.06
2019-02-05T16:44:24.939Z,102032.88
2019-02-05T16:46:58.406Z,102034.60
2019-02-05T16:49:31.736Z,102030.37
2019-02-05T16:52:05.146Z,102038.98
2019-02-05T16:54:39.300Z,102040.68
2019-02-05T16:57:12.577Z,102037.56
2019-02-05T16:59:45.965Z,102041.03
2019-02-05T17:02:28.563Z,102037.01
2019-02-05T17:04:54.289Z,102035.64
2019-02-05T17:07:27.610Z,102041.72
2019-02-05T17:10:00.930Z,102038.75
2019-02-05T17:12:34.244Z,102043.58
2019-02-05T17:15:10.972Z,102041.45
2019-02-05T17:17:44.285Z,102038.87
2019-02-05T17:20:20.482Z,102036.17
2019-02-05T17:22:53.879Z,102031.79
2019-02-05T17:25:28.916Z,102038.06
2019-02-05T17:28:04.077Z,102040.55
2019-02-05T17:30:39.548Z,102035.84
2019-02-05T17:33:12.916Z,102040.64
2019-02-05T17:35:46.266Z,102040.20
2019-02-05T17:38:19.604Z,102038.04
2019-02-05T17:40:54.660Z,102043.19
2019-02-05T17:43:28.175Z,102049.11
2019-02-05T17:46:01.570Z,102046.28
2019-02-05T17:48:34.906Z,102039.99
2019-02-05T17:51:08.264Z,102051.94
2019-02-05T17:53:41.546Z,102040.05
2019-02-05T17:56:14.874Z,102039.92
2019-02-05T17:58:48.652Z,102037.73
2019-02-05T18:01:21.941Z,102040.72
2019-02-05T18:03:55.249Z,102040.94
2019-02-05T18:06:28.635Z,102042.61
2019-02-05T18:09:01.993Z,102038.61
2019-02-05T18:11:35.386Z,102039.47
2019-02-05T18:14:08.739Z,102036.11
2019-02-05T18:16:45.132Z,102033.50
2019-02-05T18:19:17.350Z,102037.30
2019-02-05T18:21:50.843Z,102031.17
2019-02-05T18:24:25.394Z,102039.98
2019-02-05T18:26:58.695Z,102043.54
2019-02-05T18:29:32.009Z,102049.12
2019-02-05T18:32:05.969Z,102051.25
2019-02-05T18:34:39.239Z,102049.88
2019-02-05T18:37:13.888Z,102050.57
2019-02-05T18:39:47.242Z,102055.84
2019-02-05T18:42:20.691Z,102050.27
2019-02-05T18:44:54.011Z,102045.44
2019-02-05T18:47:27.325Z,102036.93
2019-02-05T18:50:00.648Z,102038.73
2019-02-05T18:52:34.046Z,102038.20
2019-02-05T18:55:10.538Z,102036.07
2019-02-05T18:57:44.203Z,102032.86
2019-02-05T19:00:20.880Z,102033.95
2019-02-05T19:02:54.318Z,102030.58
2019-02-05T19:05:28.298Z,102036.08
2019-02-05T19:08:01.901Z,102043.37
2019-02-05T19:10:35.451Z,102040.06
2019-02-05T19:13:08.870Z,102040.78
2019-02-05T19:15:43.088Z,102041.80
2019-02-05T19:18:16.445Z,102043.13
2019-02-05T19:20:49.707Z,102046.11
2019-02-05T19:23:23.099Z,102039.61
2019-02-05T19:26:03.627Z,102047.37
2019-02-05T19:28:37.114Z,102040.59
2019-02-05T19:31:12.039Z,102048.73
2019-02-05T19:33:46.951Z,102051.11
2019-02-05T19:36:20.269Z,102054.26
2019-02-05T19:38:53.638Z,102049.84
2019-02-05T19:41:26.906Z,102053.48
2019-02-05T19:44:00.214Z,102053.00
2019-02-05T19:46:38.581Z,102056.72
2019-02-05T19:49:21.797Z,102053.85
2019-02-05T19:51:51.540Z,102053.55
2019-02-05T19:54:25.438Z,102052.90
2019-02-05T19:56:58.750Z,102053.83
2019-02-05T19:59:32.464Z,102046.80
2019-02-05T20:02:06.498Z,102051.31
2019-02-05T20:04:39.903Z,102044.05
2019-02-05T20:07:13.292Z,102046.50
2019-02-05T20:09:46.618Z,102047.80
2019-02-05T20:12:19.946Z,102044.23
2019-02-05T20:14:53.609Z,102040.20
2019-02-05T20:17:27.041Z,102039.53
2019-02-05T20:20:00.385Z,102037.94
2019-02-05T20:22:33.720Z,102037.56
2019-02-05T20:25:09.976Z,102031.39
2019-02-05T20:27:43.298Z,102031.17
2019-02-05T20:30:24.272Z,102030.98
2019-02-05T20:32:57.589Z,102040.04
2019-02-05T20:35:30.896Z,102043.30
2019-02-05T20:38:04.411Z,102039.50
2019-02-05T20:40:37.727Z,102043.77
2019-02-05T20:43:11.168Z,102045.23
2019-02-05T20:45:44.477Z,102045.77
2019-02-05T20:48:18.035Z,102040.03
2019-02-05T20:50:51.477Z,102045.13
2019-02-05T20:53:25.320Z,102037.95
2019-02-05T20:56:00.574Z,102040.16
2019-02-05T20:58:33.860Z,102038.75
2019-02-05T21:01:07.525Z,102042.73
2019-02-05T21:03:42.154Z,102049.21
2019-02-05T21:06:15.434Z,102044.09
2019-02-05T21:08:49.782Z,102043.37
2019-02-05T21:11:23.067Z,102037.59
2019-02-05T21:13:56.399Z,102044.26
2019-02-05T21:16:29.679Z,102044.63
2019-02-05T21:19:02.961Z,102045.69
2019-02-05T21:21:36.263Z,102046.55
2019-02-05T21:24:09.581Z,102035.49
2019-02-05T21:26:42.949Z,102026.88
2019-02-05T21:29:16.314Z,102035.64
2019-02-05T21:31:49.572Z,102040.63
2019-02-05T21:34:22.887Z,102042.27
2019-02-05T21:36:56.450Z,102038.97
2019-02-05T21:39:29.743Z,102047.16
2019-02-05T21:42:03.035Z,102044.42
2019-02-05T21:44:37.536Z,102046.41
2019-02-05T21:47:10.864Z,102043.75
2019-02-05T21:49:44.169Z,102051.03
2019-02-05T21:52:18.555Z,102037.91
2019-02-05T21:54:51.885Z,102041.00
2019-02-05T21:57:25.167Z,102038.88
2019-02-05T21:59:59.031Z,102030.47
2019-02-05T22:02:32.372Z,102027.05
2019-02-05T22:05:08.810Z,102027.86
2019-02-05T22:07:42.192Z,102023.92
2019-02-05T22:10:15.536Z,102025.34
2019-02-05T22:12:48.862Z,102031.91
2019-02-05T22:15:23.842Z,102032.12
2019-02-05T22:17:57.167Z,102035.12
2019-02-05T22:20:32.500Z,102036.71
2019-02-05T22:23:05.868Z,102034.05
2019-02-05T22:25:39.185Z,102032.00
2019-02-05T22:28:12.953Z,102029.88
2019-02-05T22:30:46.265Z,102029.53
2019-02-05T22:33:19.557Z,102023.72
2019-02-05T22:35:52.882Z,102019.78
2019-02-05T22:38:26.157Z,102027.92
2019-02-05T22:40:59.501Z,102028.12
2019-02-05T22:43:32.789Z,102031.92
2019-02-05T22:46:06.192Z,102031.13
2019-02-05T22:48:39.863Z,102036.48
2019-02-05T22:51:13.179Z,102035.45
2019-02-05T22:53:46.489Z,102040.64
2019-02-05T22:56:20.300Z,102035.09
2019-02-05T22:58:54.062Z,102040.02
2019-02-05T23:01:33.616Z,102041.81
2019-02-05T23:04:09.991Z,102037.66
2019-02-05T23:06:50.053Z,102036.91
2019-02-05T23:09:41.748Z,102037.64
2019-02-05T23:12:31.023Z,102030.14
2019-02-05T23:15:13.167Z,102040.07
2019-02-05T23:17:46.573Z,102039.97
2019-02-05T23:20:19.976Z,102045.11
2019-02-05T23:22:57.147Z,102043.29
2019-02-05T23:25:31.010Z,102039.64
2019-02-05T23:28:04.474Z,102033.69
2019-02-05T23:30:37.856Z,102035.62
2019-02-05T23:33:11.335Z,102036.41
2019-02-05T23:35:44.654Z,102033.06
2019-02-05T23:38:19.484Z,102037.08
2019-02-05T23:40:52.793Z,102031.67
2019-02-05T23:43:26.744Z,102033.10
2019-02-05T23:46:01.647Z,102026.27
2019-02-05T23:48:35.188Z,102024.44
2019-02-05T23:51:08.568Z,102027.98
2019-02-05T23:53:41.864Z,102030.31
2019-02-05T23:56:25.369Z,102026.91
2019-02-05T23:58:50.455Z,102022.72
